createdAt,value
2018-02-14T00:01:23.030Z,0.70
2018-02-14T00:03:51.331Z,0.80
2018-02-14T00:06:19.638Z,1.80
2018-02-14T00:08:49.156Z,0.60
2018-02-14T00:11:17.447Z,0.70
2018-02-14T00:13:46.415Z,0.80
2018-02-14T00:16:14.727Z,0.93
2018-02-14T00:18:43.768Z,0.70
2018-02-14T00:21:12.057Z,0.80
2018-02-14T00:23:40.346Z,0.73
2018-02-14T00:26:08.612Z,0.90
2018-02-14T00:28:36.924Z,4.93
2018-02-14T00:31:05.206Z,0.77
2018-02-14T00:33:34.167Z,0.60
2018-02-14T00:36:02.449Z,0.70
2018-02-14T00:38:30.749Z,1.05
2018-02-14T00:41:00.218Z,0.80
2018-02-14T00:43:28.500Z,0.60
2018-02-14T00:45:56.785Z,0.70
2018-02-14T00:48:26.113Z,10.65
2018-02-14T00:50:54.395Z,0.80
2018-02-14T00:53:22.698Z,1.00
2018-02-14T00:55:51.263Z,0.80
2018-02-14T00:58:19.524Z,0.80
2018-02-14T01:00:48.604Z,5.12
2018-02-14T01:03:16.869Z,1.95
2018-02-14T01:05:45.173Z,0.70
2018-02-14T01:08:13.865Z,2.85
2018-02-14T01:10:42.908Z,0.90
2018-02-14T01:13:11.202Z,0.80
2018-02-14T01:15:39.481Z,0.80
2018-02-14T01:18:07.767Z,6.82
2018-02-14T01:20:50.799Z,0.77
2018-02-14T01:23:19.080Z,6.35
2018-02-14T01:25:48.110Z,0.70
2018-02-14T01:28:16.407Z,0.70
2018-02-14T01:30:44.915Z,2.20
2018-02-14T01:33:13.179Z,0.80
2018-02-14T01:35:41.469Z,0.70
2018-02-14T01:38:09.733Z,0.70
2018-02-14T01:40:38.047Z,1.35
2018-02-14T01:43:07.099Z,2.65
2018-02-14T01:45:35.389Z,1.07
2018-02-14T01:48:03.693Z,0.80
2018-02-14T01:50:38.983Z,0.70
2018-02-14T01:53:07.241Z,0.95
2018-02-14T01:55:36.260Z,3.00
2018-02-14T01:58:04.636Z,0.90
2018-02-14T02:00:33.045Z,0.88
2018-02-14T02:03:01.338Z,0.77
2018-02-14T02:05:29.608Z,0.75
2018-02-14T02:07:57.890Z,1.00
2018-02-14T02:10:26.171Z,0.70
2018-02-14T02:12:54.476Z,0.70
2018-02-14T02:15:23.509Z,0.80
2018-02-14T02:17:51.829Z,3.33
2018-02-14T02:20:20.089Z,1.08
2018-02-14T02:22:48.360Z,0.75
2018-02-14T02:25:16.639Z,2.20
2018-02-14T02:27:44.919Z,3.72
2018-02-14T02:30:14.149Z,0.85
2018-02-14T02:32:43.176Z,0.70
2018-02-14T02:35:11.492Z,0.70
2018-02-14T02:37:39.756Z,0.70
2018-02-14T02:40:19.757Z,0.80
2018-02-14T02:42:48.047Z,1.33
2018-02-14T02:45:17.092Z,0.77
2018-02-14T02:47:45.398Z,0.70
2018-02-14T02:50:14.700Z,4.15
2018-02-14T02:52:43.013Z,0.70
2018-02-14T02:55:11.284Z,0.70
2018-02-14T02:57:39.575Z,0.75
2018-02-14T03:00:07.828Z,0.77
2018-02-14T03:02:36.894Z,0.80
2018-02-14T03:05:05.172Z,0.70
2018-02-14T03:07:33.478Z,1.15
2018-02-14T03:10:02.508Z,0.90
2018-02-14T03:12:30.801Z,2.67
2018-02-14T03:14:59.069Z,0.70
2018-02-14T03:17:27.339Z,0.80
2018-02-14T03:19:55.620Z,2.37
2018-02-14T03:22:23.894Z,3.90
2018-02-14T03:24:52.234Z,1.55
2018-02-14T03:27:20.490Z,0.70
2018-02-14T03:29:48.818Z,0.70
2018-02-14T03:32:17.094Z,0.80
2018-02-14T03:34:45.391Z,3.72
2018-02-14T03:37:13.859Z,0.70
2018-02-14T03:39:42.295Z,0.80
2018-02-14T03:42:10.558Z,0.73
2018-02-14T03:44:39.600Z,1.85
2018-02-14T03:47:07.892Z,0.70
2018-02-14T03:49:36.167Z,0.70
2018-02-14T03:52:04.466Z,0.80
2018-02-14T03:54:32.749Z,6.07
2018-02-14T03:57:01.054Z,0.70
2018-02-14T03:59:29.316Z,0.70
2018-02-14T04:01:57.626Z,0.80
2018-02-14T04:04:26.670Z,1.05
2018-02-14T04:06:54.941Z,3.47
2018-02-14T04:09:23.233Z,0.75
2018-02-14T04:11:51.492Z,0.80
2018-02-14T04:14:19.802Z,0.77
2018-02-14T04:16:48.087Z,1.67
2018-02-14T04:19:16.372Z,2.00
2018-02-14T04:21:44.648Z,0.93
2018-02-14T04:24:13.224Z,0.80
2018-02-14T04:26:41.621Z,5.07
2018-02-14T04:29:09.861Z,0.70
2018-02-14T04:31:38.136Z,8.57
2018-02-14T04:34:06.488Z,0.77
2018-02-14T04:36:34.789Z,0.80
2018-02-14T04:39:03.056Z,0.90
2018-02-14T04:41:31.342Z,0.70
2018-02-14T04:43:59.618Z,1.00
2018-02-14T04:46:27.921Z,1.08
2018-02-14T04:48:56.197Z,1.20
2018-02-14T04:51:24.496Z,0.80
2018-02-14T04:53:52.768Z,0.70
2018-02-14T04:56:21.042Z,0.70
2018-02-14T04:58:49.337Z,5.37
2018-02-14T05:01:18.388Z,0.70
2018-02-14T05:03:46.664Z,1.00
2018-02-14T05:06:14.942Z,0.75
2018-02-14T05:08:43.263Z,0.70
2018-02-14T05:11:11.505Z,0.70
2018-02-14T05:13:39.817Z,0.70
2018-02-14T05:16:08.098Z,1.03
2018-02-14T05:18:36.406Z,0.80
2018-02-14T05:21:04.719Z,1.33
2018-02-14T05:23:32.994Z,0.70
2018-02-14T05:26:01.287Z,1.00
2018-02-14T05:28:29.574Z,0.82
2018-02-14T05:30:57.860Z,5.80
2018-02-14T05:33:26.141Z,0.82
2018-02-14T05:35:54.560Z,1.00
2018-02-14T05:38:22.820Z,1.15
2018-02-14T05:40:52.067Z,2.08
2018-02-14T05:43:20.724Z,0.70
2018-02-14T05:45:49.002Z,0.83
2018-02-14T05:48:17.296Z,2.35
2018-02-14T05:50:45.563Z,0.70
2018-02-14T05:53:13.894Z,2.08
2018-02-14T05:55:42.169Z,1.00
2018-02-14T05:58:10.456Z,0.80
2018-02-14T06:00:38.732Z,0.80
2018-02-14T06:03:07.039Z,5.68
2018-02-14T06:05:36.090Z,1.00
2018-02-14T06:08:04.381Z,3.05
2018-02-14T06:10:32.656Z,0.70
2018-02-14T06:13:00.933Z,1.95
2018-02-14T06:16:09.260Z,1.85
2018-02-14T06:18:37.521Z,1.50
2018-02-14T06:21:16.719Z,1.37
2018-02-14T06:23:57.590Z,0.80
2018-02-14T06:26:25.914Z,0.70
2018-02-14T06:28:54.193Z,4.47
2018-02-14T06:31:22.501Z,0.80
2018-02-14T06:33:50.778Z,0.80
2018-02-14T06:36:19.074Z,0.80
2018-02-14T06:38:47.344Z,0.80
2018-02-14T06:41:15.667Z,1.00
2018-02-14T06:43:43.934Z,0.80
2018-02-14T06:46:12.201Z,1.50
2018-02-14T06:48:40.520Z,0.80
2018-02-14T06:51:08.808Z,1.13
2018-02-14T06:53:37.146Z,5.95
2018-02-14T06:56:05.570Z,1.00
2018-02-14T06:58:34.632Z,0.70
2018-02-14T07:01:02.900Z,4.73
2018-02-14T07:03:31.500Z,0.70
2018-02-14T07:05:59.787Z,0.93
2018-02-14T07:08:28.063Z,0.73
2018-02-14T07:10:56.357Z,0.80
2018-02-14T07:13:25.405Z,1.77
2018-02-14T07:15:53.717Z,0.80
2018-02-14T07:18:22.070Z,0.77
2018-02-14T07:20:50.359Z,0.80
2018-02-14T07:23:24.349Z,0.85
2018-02-14T07:25:52.637Z,0.80
2018-02-14T07:28:20.920Z,0.70
2018-02-14T07:30:49.206Z,0.70
2018-02-14T07:33:17.501Z,3.50
2018-02-14T07:35:46.093Z,1.57
2018-02-14T07:38:14.410Z,0.80
2018-02-14T07:40:42.733Z,0.70
2018-02-14T07:43:11.022Z,6.03
2018-02-14T07:45:39.317Z,0.90
2018-02-14T07:48:07.608Z,1.37
2018-02-14T07:50:35.875Z,2.70
2018-02-14T07:53:04.194Z,0.70
2018-02-14T07:55:32.501Z,1.70
2018-02-14T07:58:00.776Z,0.70
2018-02-14T08:00:29.050Z,0.80
2018-02-14T08:02:57.352Z,0.70
2018-02-14T08:05:26.429Z,3.35
2018-02-14T08:07:54.705Z,0.85
2018-02-14T08:10:22.985Z,0.82
2018-02-14T08:12:51.276Z,0.80
2018-02-14T08:15:19.890Z,0.80
2018-02-14T08:17:48.490Z,1.90
2018-02-14T08:20:16.760Z,1.87
2018-02-14T08:22:46.060Z,2.67
2018-02-14T08:25:14.340Z,0.88
2018-02-14T08:27:42.653Z,1.60
2018-02-14T08:30:10.913Z,0.70
2018-02-14T08:32:39.223Z,1.07
2018-02-14T08:35:07.482Z,0.70
2018-02-14T08:37:35.757Z,3.10
2018-02-14T08:40:04.019Z,0.70
2018-02-14T08:42:33.499Z,0.73
2018-02-14T08:45:01.774Z,0.70
2018-02-14T08:47:31.161Z,0.75
2018-02-14T08:50:01.183Z,1.00
2018-02-14T08:52:29.596Z,1.87
2018-02-14T08:54:58.227Z,4.00
2018-02-14T08:57:26.649Z,0.83
2018-02-14T08:59:54.980Z,2.87
2018-02-14T09:02:23.251Z,0.60
2018-02-14T09:04:51.574Z,0.88
2018-02-14T09:07:21.664Z,0.73
2018-02-14T09:09:50.026Z,2.05
2018-02-14T09:12:18.402Z,0.88
2018-02-14T09:14:46.749Z,0.70
2018-02-14T09:17:15.792Z,0.70
2018-02-14T09:19:44.096Z,0.70
2018-02-14T09:22:13.158Z,0.70
2018-02-14T09:24:41.434Z,2.08
2018-02-14T09:27:09.711Z,0.80
2018-02-14T09:29:38.005Z,0.77
2018-02-14T09:32:06.305Z,3.35
2018-02-14T09:34:34.581Z,0.70
2018-02-14T09:37:03.778Z,3.03
2018-02-14T09:39:32.039Z,4.12
2018-02-14T09:42:00.374Z,2.00
2018-02-14T09:44:28.680Z,1.00
2018-02-14T09:46:57.733Z,0.70
2018-02-14T09:49:26.061Z,0.80
2018-02-14T09:51:54.349Z,0.70
2018-02-14T09:54:22.729Z,0.70
2018-02-14T09:56:51.013Z,0.93
2018-02-14T09:59:20.074Z,0.60
2018-02-14T10:01:48.375Z,0.90
2018-02-14T10:04:16.673Z,4.87
2018-02-14T10:06:44.957Z,0.70
2018-02-14T10:09:14.009Z,0.70
2018-02-14T10:11:42.404Z,0.70
2018-02-14T10:14:10.666Z,2.55
2018-02-14T10:16:39.018Z,0.70
2018-02-14T10:19:07.287Z,0.70
2018-02-14T10:21:35.559Z,0.90
2018-02-14T10:24:03.867Z,0.80
2018-02-14T10:26:32.193Z,0.80
2018-02-14T10:29:00.547Z,0.70
2018-02-14T10:31:28.867Z,1.20
2018-02-14T10:33:57.950Z,0.70
2018-02-14T10:36:26.244Z,16.90
2018-02-14T10:38:54.594Z,19.17
2018-02-14T10:41:22.971Z,17.43
2018-02-14T10:43:51.265Z,20.27
2018-02-14T10:46:20.322Z,22.67
2018-02-14T10:48:48.590Z,29.10
2018-02-14T10:51:16.903Z,27.63
2018-02-14T10:53:45.200Z,20.57
2018-02-14T10:56:14.288Z,38.30
2018-02-14T10:58:43.350Z,24.13
2018-02-14T11:01:17.533Z,23.13
2018-02-14T11:03:45.806Z,22.50
2018-02-14T11:06:14.145Z,28.63
2018-02-14T11:08:42.406Z,22.73
2018-02-14T11:11:10.712Z,32.77
2018-02-14T11:13:39.768Z,22.73
2018-02-14T11:16:08.083Z,38.13
2018-02-14T11:18:37.199Z,28.33
2018-02-14T11:21:05.497Z,30.03
2018-02-14T11:23:33.795Z,23.83
2018-02-14T11:26:02.086Z,26.80
2018-02-14T11:28:30.442Z,27.97
2018-02-14T11:30:58.729Z,31.27
2018-02-14T11:33:27.056Z,26.60
2018-02-14T11:35:56.359Z,22.77
2018-02-14T11:38:25.401Z,19.30
2018-02-14T11:40:53.714Z,27.00
2018-02-14T11:43:22.040Z,0.60
2018-02-14T11:45:51.074Z,0.70
2018-02-14T11:48:19.345Z,0.70
2018-02-14T11:50:47.633Z,0.70
2018-02-14T11:53:15.908Z,0.60
2018-02-14T11:55:44.249Z,0.60
2018-02-14T11:58:14.406Z,0.90
2018-02-14T12:00:42.733Z,0.70
2018-02-14T12:03:11.818Z,1.00
2018-02-14T12:05:40.899Z,0.60
2018-02-14T12:08:09.184Z,12.30
2018-02-14T12:10:37.513Z,8.90
2018-02-14T12:13:05.816Z,17.00
2018-02-14T12:15:34.126Z,9.83
2018-02-14T12:18:03.228Z,6.70
2018-02-14T12:20:31.502Z,13.70
2018-02-14T12:23:00.684Z,11.50
2018-02-14T12:25:28.987Z,18.03
2018-02-14T12:27:57.309Z,17.50
2018-02-14T12:30:25.616Z,11.23
2018-02-14T12:32:54.235Z,20.50
2018-02-14T12:35:22.537Z,15.10
2018-02-14T12:37:50.830Z,8.37
2018-02-14T12:40:19.139Z,10.93
2018-02-14T12:42:47.518Z,12.77
2018-02-14T12:45:15.819Z,14.20
2018-02-14T12:47:44.852Z,13.73
2018-02-14T12:50:13.161Z,12.80
2018-02-14T12:52:41.444Z,8.80
2018-02-14T12:55:09.752Z,9.63
2018-02-14T12:57:38.814Z,8.83
2018-02-14T13:00:07.100Z,11.13
2018-02-14T13:02:35.467Z,10.23
2018-02-14T13:05:03.771Z,11.50
2018-02-14T13:07:32.073Z,9.77
2018-02-14T13:10:00.370Z,12.30
2018-02-14T13:12:28.676Z,15.80
2018-02-14T13:14:57.008Z,15.60
2018-02-14T13:17:26.127Z,15.03
2018-02-14T13:19:54.408Z,17.50
2018-02-14T13:22:22.697Z,10.07
2018-02-14T13:24:51.011Z,15.47
2018-02-14T13:27:19.326Z,13.77
2018-02-14T13:29:47.636Z,14.47
2018-02-14T13:32:15.906Z,18.50
2018-02-14T13:34:44.253Z,13.87
2018-02-14T13:37:12.534Z,14.70
2018-02-14T13:39:41.638Z,17.30
2018-02-14T13:42:09.926Z,15.93
2018-02-14T13:44:38.211Z,21.33
2018-02-14T13:47:06.534Z,19.50
2018-02-14T13:49:34.837Z,15.90
2018-02-14T13:52:03.894Z,16.10
2018-02-14T13:54:32.174Z,13.13
2018-02-14T13:57:00.485Z,12.00
2018-02-14T13:59:28.768Z,16.20
2018-02-14T14:01:57.441Z,16.20
2018-02-14T14:04:25.720Z,11.33
2018-02-14T14:06:53.990Z,12.93
2018-02-14T14:09:23.047Z,17.43
2018-02-14T14:11:51.334Z,12.13
2018-02-14T14:14:19.647Z,10.60
2018-02-14T14:16:48.676Z,13.67
2018-02-14T14:19:16.991Z,16.57
2018-02-14T14:21:45.254Z,14.50
2018-02-14T14:24:13.550Z,16.87
2018-02-14T14:26:41.809Z,10.20
2018-02-14T14:29:12.937Z,15.80
2018-02-14T14:31:41.245Z,17.83
2018-02-14T14:34:09.691Z,15.47
2018-02-14T14:36:38.013Z,15.27
2018-02-14T14:39:06.334Z,12.63
2018-02-14T14:41:34.634Z,13.50
2018-02-14T14:44:02.916Z,14.23
2018-02-14T14:46:31.213Z,15.50
2018-02-14T14:48:59.487Z,18.77
2018-02-14T14:51:27.763Z,12.27
2018-02-14T14:53:56.155Z,15.13
2018-02-14T14:56:24.752Z,16.07
2018-02-14T14:58:53.027Z,9.33
2018-02-14T15:01:21.289Z,7.97
2018-02-14T15:03:49.837Z,24.50
2018-02-14T15:06:18.137Z,30.93
2018-02-14T15:08:46.427Z,14.13
2018-02-14T15:11:14.715Z,8.50
2018-02-14T15:13:42.980Z,13.47
2018-02-14T15:16:11.302Z,16.60
2018-02-14T15:18:40.365Z,14.03
2018-02-14T15:21:08.673Z,11.77
2018-02-14T15:23:37.726Z,17.47
2018-02-14T15:26:06.014Z,16.03
2018-02-14T15:28:34.364Z,13.03
2018-02-14T15:31:03.423Z,11.53
2018-02-14T15:33:32.510Z,15.10
2018-02-14T15:36:00.789Z,12.23
2018-02-14T15:38:29.888Z,18.17
2018-02-14T15:40:58.946Z,21.03
2018-02-14T15:43:27.259Z,22.73
2018-02-14T15:45:55.558Z,26.77
2018-02-14T15:48:23.842Z,17.23
2018-02-14T15:50:52.134Z,14.40
2018-02-14T15:53:20.402Z,14.70
2018-02-14T15:55:49.461Z,15.87
2018-02-14T15:58:18.536Z,19.60
2018-02-14T16:00:46.834Z,20.97
2018-02-14T16:03:15.129Z,16.80
2018-02-14T16:05:44.210Z,13.80
2018-02-14T16:08:12.527Z,17.67
2018-02-14T16:10:40.855Z,19.73
2018-02-14T16:13:09.154Z,27.77
2018-02-14T16:15:38.199Z,26.40
2018-02-14T16:18:06.908Z,18.30
2018-02-14T16:20:35.298Z,18.13
2018-02-14T16:23:03.731Z,21.67
2018-02-14T16:25:32.323Z,20.00
2018-02-14T16:28:00.646Z,19.53
2018-02-14T16:30:28.942Z,20.20
2018-02-14T16:32:57.975Z,16.77
2018-02-14T16:35:26.308Z,19.97
2018-02-14T16:47:32.290Z,12.57
2018-02-14T16:52:55.590Z,23.58
2018-02-14T16:55:24.259Z,20.43
2018-02-14T16:57:52.578Z,18.33
2018-02-14T17:00:20.929Z,22.77
2018-02-14T17:02:57.876Z,15.60
2018-02-14T17:05:26.338Z,28.67
2018-02-14T17:07:55.429Z,13.50
2018-02-14T17:10:24.631Z,18.07
2018-02-14T17:12:55.912Z,17.52
2018-02-14T17:15:38.069Z,17.27
2018-02-14T17:18:06.409Z,21.60
2018-02-14T17:20:35.520Z,18.25
2018-02-14T17:23:03.817Z,13.48
2018-02-14T17:25:32.167Z,16.83
2018-02-14T17:28:00.561Z,13.68
2018-02-14T17:30:28.896Z,27.33
2018-02-14T17:32:57.334Z,18.90
2018-02-14T17:35:25.698Z,17.85
2018-02-14T17:37:54.991Z,22.70
2018-02-14T17:40:23.305Z,15.07
2018-02-14T17:42:54.344Z,24.52
2018-02-14T17:45:22.704Z,15.52
2018-02-14T17:47:51.067Z,15.27
2018-02-14T17:50:19.388Z,16.60
2018-02-14T17:52:48.488Z,24.42
2018-02-14T17:55:18.245Z,31.30
2018-02-14T17:57:46.579Z,33.92
2018-02-14T18:00:15.676Z,22.40
2018-02-14T18:02:44.041Z,26.23
2018-02-14T18:05:12.320Z,23.25
2018-02-14T18:07:41.516Z,17.62
2018-02-14T18:10:10.486Z,18.83
2018-02-14T18:12:38.776Z,21.47
2018-02-14T18:15:07.203Z,25.12
2018-02-14T18:17:35.576Z,20.30
2018-02-14T18:20:22.667Z,14.43
2018-02-14T18:22:51.044Z,19.15
2018-02-14T18:25:20.526Z,18.10
2018-02-14T18:27:48.915Z,20.27
2018-02-14T18:30:17.515Z,28.75
2018-02-14T18:32:45.813Z,28.85
2018-02-14T18:35:20.732Z,24.48
2018-02-14T18:37:49.134Z,24.30
2018-02-14T18:40:18.357Z,22.50
2018-02-14T18:43:06.063Z,19.73
2018-02-14T18:45:34.441Z,30.20
2018-02-14T18:48:03.621Z,41.78
2018-02-14T18:50:31.989Z,30.75
2018-02-14T18:53:06.954Z,28.35
2018-02-14T18:55:38.118Z,39.45
2018-02-14T18:58:06.593Z,40.05
2018-02-14T19:00:34.898Z,0.93
2018-02-14T19:03:04.530Z,0.90
2018-02-14T19:05:49.154Z,2.87
2018-02-14T19:11:23.972Z,1.93
2018-02-14T19:13:56.654Z,1.23
2018-02-14T19:16:26.058Z,0.93
2018-02-14T19:19:02.795Z,0.82
2018-02-14T19:21:31.286Z,0.80
2018-02-14T19:24:00.702Z,3.25
2018-02-14T19:26:29.081Z,5.33
2018-02-14T19:31:32.906Z,0.80
2018-02-14T19:34:13.270Z,1.98
2018-02-14T19:36:42.736Z,1.33
2018-02-14T19:39:11.223Z,1.00
2018-02-14T19:41:39.660Z,0.90
2018-02-14T19:44:08.925Z,14.55
2018-02-14T19:46:38.558Z,4.70
2018-02-14T19:49:13.312Z,0.75
2018-02-14T19:51:42.486Z,0.75
2018-02-14T19:54:10.928Z,0.77
2018-02-14T19:56:39.660Z,0.70
2018-02-14T19:59:08.261Z,2.53
2018-02-14T20:01:36.769Z,1.17
2018-02-14T20:04:05.240Z,0.70
2018-02-14T20:06:34.378Z,1.20
2018-02-14T20:09:02.926Z,3.45
2018-02-14T20:11:31.425Z,0.80
2018-02-14T20:13:59.770Z,0.80
2018-02-14T20:16:28.094Z,3.30
2018-02-14T20:18:56.464Z,2.85
2018-02-14T20:21:25.209Z,0.80
2018-02-14T20:23:54.838Z,27.33
2018-02-14T20:26:23.966Z,1.63
2018-02-14T20:28:52.290Z,0.70
2018-02-14T20:31:20.629Z,1.10
2018-02-14T20:33:48.949Z,0.90
2018-02-14T20:36:17.679Z,1.73
2018-02-14T20:38:46.064Z,0.80
2018-02-14T20:41:14.354Z,3.53
2018-02-14T20:43:42.801Z,1.70
2018-02-14T20:46:11.362Z,0.90
2018-02-14T20:48:40.780Z,2.67
2018-02-14T20:51:13.695Z,0.80
2018-02-14T20:53:42.726Z,0.80
2018-02-14T20:56:11.934Z,13.00
2018-02-14T20:58:41.153Z,0.90
2018-02-14T21:01:10.413Z,2.60
2018-02-14T21:03:38.883Z,3.25
2018-02-14T21:06:07.469Z,2.10
2018-02-14T21:08:36.590Z,0.70
2018-02-14T21:11:05.411Z,1.63
2018-02-14T21:13:33.976Z,1.20
2018-02-14T21:16:02.286Z,0.80
2018-02-14T21:18:31.892Z,0.70
2018-02-14T21:21:01.038Z,1.17
2018-02-14T21:23:29.448Z,0.80
2018-02-14T21:25:58.456Z,1.20
2018-02-14T21:28:26.860Z,0.82
2018-02-14T21:30:56.701Z,36.30
2018-02-14T21:33:25.059Z,0.70
2018-02-14T21:35:53.464Z,9.90
2018-02-14T21:38:21.893Z,13.27
2018-02-14T21:40:51.381Z,2.85
2018-02-14T21:43:19.667Z,1.00
2018-02-14T21:45:47.987Z,11.05
2018-02-14T21:48:16.276Z,1.35
2018-02-14T21:50:45.365Z,0.70
2018-02-14T21:53:13.799Z,4.35
2018-02-14T21:55:42.107Z,1.43
2018-02-14T21:58:10.474Z,1.27
2018-02-14T22:00:39.610Z,1.47
2018-02-14T22:03:07.908Z,1.75
2018-02-14T22:05:36.190Z,1.00
2018-02-14T22:08:08.302Z,4.10
2018-02-14T22:10:37.396Z,2.12
2018-02-14T22:13:05.935Z,0.75
2018-02-14T22:15:34.288Z,1.25
2018-02-14T22:18:02.649Z,2.10
2018-02-14T22:23:26.329Z,10.82
2018-02-14T22:25:55.535Z,0.90
2018-02-14T22:28:24.570Z,3.15
2018-02-14T22:30:52.880Z,0.67
2018-02-14T22:33:21.201Z,4.20
2018-02-14T22:35:49.523Z,1.37
2018-02-14T22:38:18.171Z,0.88
2018-02-14T22:40:46.462Z,2.80
2018-02-14T22:43:14.783Z,5.57
2018-02-14T22:45:43.593Z,8.73
2018-02-14T22:48:12.654Z,4.85
2018-02-14T22:50:40.954Z,1.17
2018-02-14T22:53:09.253Z,23.27
2018-02-14T22:55:38.281Z,3.40
2018-02-14T22:58:06.606Z,1.08
2018-02-14T23:00:35.690Z,1.20
2018-02-14T23:03:05.068Z,7.60
2018-02-14T23:05:37.213Z,3.50
2018-02-14T23:08:05.540Z,0.98
2018-02-14T23:10:33.855Z,1.27
2018-02-14T23:13:02.141Z,0.90
2018-02-14T23:15:30.459Z,3.78
2018-02-14T23:17:58.739Z,1.70
2018-02-14T23:20:28.152Z,0.90
2018-02-14T23:22:56.421Z,1.23
2018-02-14T23:25:27.770Z,0.90
2018-02-14T23:27:56.088Z,2.12
2018-02-14T23:30:26.288Z,4.07
2018-02-14T23:32:54.580Z,1.17
2018-02-14T23:35:23.620Z,1.90
2018-02-14T23:37:51.916Z,0.70
2018-02-14T23:40:21.144Z,0.80
2018-02-14T23:42:50.224Z,0.80
2018-02-14T23:45:20.186Z,0.80
2018-02-14T23:47:48.491Z,0.73
2018-02-14T23:50:18.598Z,1.00
2018-02-14T23:52:46.897Z,1.40
2018-02-14T23:55:15.187Z,0.90
2018-02-14T23:57:43.576Z,0.70
